Time;durP1;ratioP1;P1;durP2;ratioP2;P2;SDS_P1;SDS_P2;PMS_P1;PMS_P2;Temp;Humidity;BMP_temperature;BMP_pressure;BME280_temperature;BME280_humidity;BME280_pressure;Samples;Min_cycle;Max_cycle;Signal;HPM_P1;HPM_P2
2023/09/01 00:00:12;;;;;;;7.70;3.73;;;15.80;98.00;;;;;;5051936;28;20454;-67
2023/09/01 00:02:46;;;;;;;9.80;3.37;;;15.70;98.00;;;;;;5051600;28;20477;-67
2023/09/01 00:05:14;;;;;;;4.83;3.00;;;15.70;98.00;;;;;;5051888;28;20880;-68
2023/09/01 00:07:45;;;;;;;7.10;3.37;;;15.80;98.00;;;;;;5051208;28;20454;-67
2023/09/01 00:10:12;;;;;;;7.57;3.47;;;15.70;98.00;;;;;;5034061;28;20488;-67
2023/09/01 00:12:39;;;;;;;10.17;3.20;;;15.70;98.00;;;;;;5051663;28;20826;-67
2023/09/01 00:15:07;;;;;;;5.80;3.40;;;15.80;98.00;;;;;;5051903;28;20445;-66
2023/09/01 00:17:34;;;;;;;7.90;3.40;;;16.00;98.00;;;;;;5051721;28;20818;-67
2023/09/01 00:20:03;;;;;;;6.40;3.60;;;15.90;98.00;;;;;;5051750;28;20453;-68
2023/09/01 00:22:30;;;;;;;5.67;3.40;;;15.80;98.00;;;;;;5034103;28;21184;-66
2023/09/01 00:24:58;;;;;;;5.03;3.10;;;15.70;98.00;;;;;;5051682;28;20995;-68
2023/09/01 00:27:26;;;;;;;6.27;2.90;;;15.70;98.00;;;;;;5051461;28;20964;-66
2023/09/01 00:29:53;;;;;;;5.40;2.73;;;15.80;98.00;;;;;;5034147;28;20465;-67
2023/09/01 00:32:20;;;;;;;6.07;3.10;;;15.80;98.00;;;;;;5034060;28;20442;-67
2023/09/01 00:34:47;;;;;;;5.17;3.40;;;15.90;98.00;;;;;;5051973;28;20588;-67
2023/09/01 00:37:14;;;;;;;4.80;3.40;;;15.90;98.00;;;;;;5051641;28;20507;-67
2023/09/01 00:39:41;;;;;;;6.17;3.27;;;16.00;98.00;;;;;;5033908;28;21005;-67
2023/09/01 00:42:09;;;;;;;5.70;3.30;;;16.10;98.00;;;;;;5051808;28;20484;-68
2023/09/01 00:44:37;;;;;;;7.70;3.20;;;16.00;98.00;;;;;;5054057;28;20456;-67
2023/09/01 00:47:04;;;;;;;7.20;3.30;;;15.90;98.00;;;;;;5055884;28;20497;-67
2023/09/01 00:49:31;;;;;;;4.93;2.87;;;15.90;98.00;;;;;;5055733;28;21075;-66
2023/09/01 00:51:59;;;;;;;4.33;3.20;;;15.90;98.00;;;;;;5037730;28;20489;-67
2023/09/01 00:54:27;;;;;;;5.47;3.30;;;15.90;98.00;;;;;;5055412;28;20971;-67
2023/09/01 00:56:55;;;;;;;5.53;3.27;;;15.90;98.00;;;;;;5055382;28;20970;-67
2023/09/01 00:59:24;;;;;;;5.57;3.10;;;15.90;98.00;;;;;;5055291;28;20511;-66
2023/09/01 01:01:53;;;;;;;8.27;3.50;;;16.00;98.00;;;;;;5037473;28;20453;-68
2023/09/01 01:04:23;;;;;;;8.20;3.47;;;16.10;98.00;;;;;;5055261;28;20967;-66
2023/09/01 01:07:06;;;;;;;5.43;3.27;;;16.00;98.00;;;;;;5055180;28;20936;-68
2023/09/01 01:09:45;;;;;;;4.87;3.20;;;15.90;98.00;;;;;;5055045;28;20445;-66
2023/09/01 01:12:22;;;;;;;5.33;3.07;;;15.90;98.00;;;;;;5055210;28;20483;-67
2023/09/01 01:14:54;;;;;;;6.67;3.57;;;15.80;98.00;;;;;;5055056;28;20485;-66
2023/09/01 01:17:21;;;;;;;11.97;3.33;;;15.90;98.00;;;;;;5037316;28;20536;-67
2023/09/01 01:19:53;;;;;;;4.03;3.00;;;15.90;98.00;;;;;;5054888;28;20511;-67
2023/09/01 01:22:38;;;;;;;6.97;3.77;;;15.80;98.00;;;;;;5054844;28;20454;-67
2023/09/01 01:25:08;;;;;;;7.90;3.60;;;15.70;98.00;;;;;;5054825;28;20995;-67
2023/09/01 01:27:35;;;;;;;5.90;3.10;;;15.70;98.00;;;;;;5054824;28;20446;-68
2023/09/01 01:30:04;;;;;;;4.70;3.03;;;15.80;98.00;;;;;;5054988;28;20507;-67
2023/09/01 01:32:32;;;;;;;5.00;2.93;;;15.80;98.00;;;;;;5054615;28;20516;-67
2023/09/01 01:35:12;;;;;;;8.90;3.20;;;15.80;98.00;;;;;;5055111;28;20453;-67
2023/09/01 01:37:46;;;;;;;3.70;2.73;;;15.80;98.00;;;;;;5054709;28;20453;-68
2023/09/01 01:40:15;;;;;;;7.33;3.20;;;15.90;98.00;;;;;;5035656;28;20472;-66
2023/09/01 01:42:46;;;;;;;4.10;2.93;;;16.00;98.00;;;;;;5034649;28;20458;-67
2023/09/01 01:45:16;;;;;;;5.63;3.13;;;15.90;98.00;;;;;;5017746;28;20934;-67
2023/09/01 01:47:43;;;;;;;5.77;3.23;;;16.00;98.00;;;;;;5034304;28;20557;-67
2023/09/01 01:50:10;;;;;;;11.83;3.03;;;16.20;98.00;;;;;;5034534;28;20458;-67
2023/09/01 01:52:38;;;;;;;5.50;3.00;;;16.20;98.00;;;;;;5034048;28;21008;-67
2023/09/01 01:55:07;;;;;;;5.07;3.00;;;16.10;98.00;;;;;;5033365;28;20457;-67
2023/09/01 01:57:36;;;;;;;6.23;3.10;;;16.00;98.00;;;;;;5034087;28;20541;-67
2023/09/01 02:00:11;;;;;;;5.10;2.90;;;15.90;98.00;;;;;;5017038;28;20461;-67
2023/09/01 02:02:38;;;;;;;5.37;2.50;;;15.90;98.00;;;;;;5034323;28;20506;-67
2023/09/01 02:05:07;;;;;;;4.60;3.17;;;15.90;98.00;;;;;;5034107;28;20490;-67
2023/09/01 02:07:34;;;;;;;4.27;2.80;;;16.00;98.00;;;;;;5034199;28;20808;-67
2023/09/01 02:10:02;;;;;;;4.30;2.80;;;16.00;98.00;;;;;;5016764;28;20458;-67
2023/09/01 02:12:33;;;;;;;7.03;3.23;;;16.00;98.00;;;;;;5034007;28;20486;-68
2023/09/01 02:15:03;;;;;;;5.20;3.07;;;15.90;98.00;;;;;;5016573;28;20513;-67
2023/09/01 02:17:30;;;;;;;4.60;2.70;;;15.90;98.00;;;;;;5033690;28;20932;-66
2023/09/01 02:19:57;;;;;;;5.83;2.87;;;15.90;98.00;;;;;;5034071;28;20513;-66
2023/09/01 02:22:25;;;;;;;5.60;3.20;;;15.90;98.00;;;;;;5016088;28;20454;-67
2023/09/01 02:24:52;;;;;;;4.00;2.80;;;15.90;98.00;;;;;;5033912;28;20458;-66
2023/09/01 02:27:19;;;;;;;6.30;2.73;;;16.00;98.00;;;;;;5016142;28;21153;-67
2023/09/01 02:29:46;;;;;;;5.43;2.97;;;16.10;98.00;;;;;;5033870;28;20447;-68
2023/09/01 02:32:14;;;;;;;4.63;2.70;;;16.00;98.00;;;;;;5016162;28;20509;-68
2023/09/01 02:34:41;;;;;;;4.60;2.90;;;16.10;98.00;;;;;;5033751;28;20516;-66
2023/09/01 02:37:08;;;;;;;4.90;2.87;;;16.20;98.00;;;;;;5033828;28;20533;-67
2023/09/01 02:39:37;;;;;;;4.53;2.70;;;16.20;98.00;;;;;;5033702;28;20454;-67
2023/09/01 02:42:04;;;;;;;4.00;2.70;;;16.10;98.00;;;;;;5016281;28;20466;-67
2023/09/01 02:44:31;;;;;;;4.30;2.67;;;16.10;98.00;;;;;;5033423;28;20462;-67
2023/09/01 02:46:58;;;;;;;3.43;2.53;;;16.00;98.00;;;;;;5033150;28;20458;-67
2023/09/01 02:49:30;;;;;;;3.83;2.63;;;16.00;98.00;;;;;;5033317;28;20450;-67
2023/09/01 02:51:57;;;;;;;4.63;2.73;;;15.90;98.00;;;;;;5000246;28;20821;-67
2023/09/01 02:54:24;;;;;;;5.10;2.90;;;15.90;98.00;;;;;;5033304;28;20459;-67
2023/09/01 02:56:51;;;;;;;3.37;2.63;;;16.00;98.00;;;;;;5033234;28;20494;-67
2023/09/01 02:59:18;;;;;;;3.93;2.53;;;16.00;98.00;;;;;;5033100;28;20458;-67
2023/09/01 03:01:45;;;;;;;6.53;3.10;;;16.20;98.00;;;;;;5015599;28;20465;-67
2023/09/01 03:04:12;;;;;;;5.37;2.87;;;16.20;98.00;;;;;;5032848;28;20875;-66
2023/09/01 03:06:43;;;;;;;6.00;2.70;;;16.40;98.00;;;;;;5032234;28;20447;-67
2023/09/01 03:09:10;;;;;;;5.07;3.50;;;16.30;98.00;;;;;;5015909;28;20451;-67
2023/09/01 03:11:37;;;;;;;5.27;2.80;;;16.20;98.00;;;;;;5033044;28;20573;-67
2023/09/01 03:14:05;;;;;;;4.90;2.87;;;16.20;98.00;;;;;;5032992;28;20454;-67
2023/09/01 03:16:34;;;;;;;3.90;2.93;;;16.10;98.00;;;;;;5032957;28;20880;-67
2023/09/01 03:19:01;;;;;;;4.30;2.87;;;16.20;98.00;;;;;;5032519;28;20535;-67
2023/09/01 03:21:30;;;;;;;5.50;2.67;;;16.20;98.00;;;;;;5032880;28;20450;-66
2023/09/01 03:24:01;;;;;;;10.37;2.97;;;16.30;98.00;;;;;;5015500;28;20512;-67
2023/09/01 03:26:30;;;;;;;6.80;3.30;;;16.20;98.00;;;;;;5015808;28;20446;-67
2023/09/01 03:28:57;;;;;;;7.90;3.47;;;16.20;98.00;;;;;;5032781;28;20501;-66
2023/09/01 03:31:25;;;;;;;9.63;2.87;;;16.00;98.00;;;;;;5015368;28;20481;-67
2023/09/01 03:33:53;;;;;;;4.67;2.80;;;16.00;98.00;;;;;;5032596;28;20465;-68
2023/09/01 03:36:20;;;;;;;4.90;3.00;;;16.10;98.00;;;;;;5032492;28;20451;-67
2023/09/01 03:38:49;;;;;;;5.43;3.00;;;16.10;98.00;;;;;;5014878;28;20521;-67
2023/09/01 03:41:17;;;;;;;5.93;3.60;;;16.20;98.00;;;;;;5032527;28;20486;-67
2023/09/01 03:43:48;;;;;;;5.33;3.03;;;16.10;98.00;;;;;;5032194;28;20825;-68
2023/09/01 03:46:15;;;;;;;9.27;3.03;;;16.10;98.00;;;;;;5032289;28;20453;-66
2023/09/01 03:48:42;;;;;;;4.60;2.80;;;16.20;98.00;;;;;;5032100;28;20976;-66
2023/09/01 03:51:10;;;;;;;5.03;3.47;;;16.10;98.00;;;;;;5032192;28;20449;-67
2023/09/01 03:53:38;;;;;;;4.90;3.07;;;16.10;98.00;;;;;;5032113;28;20501;-67
2023/09/01 03:56:08;;;;;;;6.40;3.23;;;16.20;98.00;;;;;;5032408;28;20520;-66
2023/09/01 03:58:37;;;;;;;5.20;2.83;;;16.10;98.00;;;;;;5014735;28;20882;-67
2023/09/01 04:01:08;;;;;;;4.70;3.00;;;16.10;98.00;;;;;;5032220;28;20573;-67
2023/09/01 04:03:35;;;;;;;5.70;3.23;;;16.20;98.00;;;;;;5032024;28;20454;-66
2023/09/01 04:06:03;;;;;;;5.97;2.90;;;16.20;98.00;;;;;;5032189;28;20455;-66
2023/09/01 04:08:30;;;;;;;3.70;2.50;;;16.10;98.00;;;;;;5014537;28;20458;-67
2023/09/01 04:10:57;;;;;;;4.57;2.90;;;16.30;98.00;;;;;;5014707;28;20466;-67
2023/09/01 04:13:24;;;;;;;4.43;2.50;;;16.40;98.00;;;;;;5014335;28;20540;-66
2023/09/01 04:15:53;;;;;;;6.47;2.37;;;16.40;98.00;;;;;;5032142;28;20466;-67
2023/09/01 04:18:20;;;;;;;4.23;2.73;;;16.50;98.00;;;;;;5031113;28;20478;-68
2023/09/01 04:20:50;;;;;;;5.00;2.50;;;16.50;98.00;;;;;;5032226;28;20948;-67
2023/09/01 04:23:17;;;;;;;3.20;2.40;;;16.50;98.00;;;;;;5032120;28;20458;-68
2023/09/01 04:25:45;;;;;;;3.13;2.20;;;16.60;98.00;;;;;;5014506;28;20538;-67
2023/09/01 04:28:12;;;;;;;3.40;2.33;;;16.60;98.00;;;;;;5031855;28;21019;-67
2023/09/01 04:30:39;;;;;;;6.03;2.50;;;16.50;98.00;;;;;;4997951;28;20500;-68
2023/09/01 04:33:08;;;;;;;4.37;2.47;;;16.40;98.00;;;;;;5031504;28;20483;-67
2023/09/01 04:35:35;;;;;;;3.60;2.43;;;16.50;98.00;;;;;;5031689;28;20462;-67
2023/09/01 04:38:03;;;;;;;2.80;2.10;;;16.50;98.00;;;;;;5031417;28;20463;-67
2023/09/01 04:40:31;;;;;;;3.13;2.00;;;16.60;98.00;;;;;;5031583;28;20960;-67
2023/09/01 04:42:59;;;;;;;4.67;2.37;;;16.60;98.00;;;;;;5031409;28;20490;-67
2023/09/01 04:45:26;;;;;;;3.93;2.43;;;16.50;98.00;;;;;;5031521;28;20854;-67
2023/09/01 04:47:55;;;;;;;2.57;2.30;;;16.50;98.00;;;;;;5031288;28;20517;-67
2023/09/01 04:50:23;;;;;;;5.03;2.43;;;16.60;98.00;;;;;;5031566;28;20511;-66
2023/09/01 04:52:50;;;;;;;3.17;2.00;;;16.60;98.00;;;;;;5031343;28;20545;-67
2023/09/01 04:55:18;;;;;;;4.90;2.60;;;16.60;98.00;;;;;;5031575;28;20462;-66
2023/09/01 04:57:45;;;;;;;5.50;2.30;;;16.60;98.00;;;;;;5031387;28;20539;-67
2023/09/01 05:00:16;;;;;;;2.87;2.03;;;16.70;98.00;;;;;;5031486;28;20462;-67
2023/09/01 05:02:44;;;;;;;2.87;2.07;;;16.80;98.00;;;;;;5031282;28;20948;-67
2023/09/01 05:05:13;;;;;;;2.30;1.90;;;16.90;98.00;;;;;;5031461;28;20451;-66
2023/09/01 05:07:42;;;;;;;2.70;2.00;;;16.90;98.00;;;;;;5031441;28;20447;-66
2023/09/01 05:10:10;;;;;;;4.30;2.20;;;17.00;98.00;;;;;;5031353;28;20465;-68
2023/09/01 05:12:37;;;;;;;4.33;2.23;;;17.00;98.00;;;;;;5031237;28;20479;-67
2023/09/01 05:15:06;;;;;;;3.87;2.10;;;17.10;98.00;;;;;;5031481;28;20837;-67
2023/09/01 05:17:33;;;;;;;4.13;2.07;;;17.10;98.00;;;;;;5013113;28;20455;-67
2023/09/01 05:20:00;;;;;;;2.40;2.00;;;17.20;98.00;;;;;;5031322;28;20470;-67
2023/09/01 05:22:27;;;;;;;2.97;2.00;;;17.20;98.00;;;;;;5031436;28;20455;-67
2023/09/01 05:24:56;;;;;;;7.40;2.13;;;17.20;98.00;;;;;;5030988;28;20580;-67
2023/09/01 05:27:23;;;;;;;6.90;1.90;;;17.20;98.00;;;;;;5031038;28;20450;-67
2023/09/01 05:29:50;;;;;;;2.97;2.00;;;17.20;98.00;;;;;;4998097;28;20953;-67
2023/09/01 05:32:17;;;;;;;3.33;1.97;;;17.30;98.00;;;;;;5034688;28;20483;-67
2023/09/01 05:34:45;;;;;;;2.40;1.83;;;17.40;98.00;;;;;;5034523;28;20454;-67
2023/09/01 05:37:12;;;;;;;2.87;1.90;;;17.40;98.00;;;;;;5034686;28;20465;-67
2023/09/01 05:39:41;;;;;;;2.10;1.73;;;17.40;98.00;;;;;;5016576;28;20964;-68
2023/09/01 05:42:20;;;;;;;2.80;1.93;;;17.40;98.00;;;;;;5016802;28;20459;-67
2023/09/01 05:44:48;;;;;;;3.17;2.07;;;17.50;98.00;;;;;;5034094;28;20454;-66
2023/09/01 05:47:30;;;;;;;3.00;1.90;;;17.40;98.00;;;;;;5034158;28;20537;-67
2023/09/01 05:49:57;;;;;;;2.70;1.93;;;17.40;98.00;;;;;;5034073;28;20466;-68
2023/09/01 05:52:25;;;;;;;4.17;2.00;;;17.50;98.00;;;;;;5033566;28;20504;-67
2023/09/01 05:54:52;;;;;;;2.60;1.90;;;17.50;98.00;;;;;;5015708;28;20480;-68
2023/09/01 05:57:21;;;;;;;3.80;1.70;;;17.50;98.00;;;;;;5033542;28;20455;-68
2023/09/01 05:59:48;;;;;;;2.00;1.70;;;17.50;98.00;;;;;;5033689;28;20459;-67
2023/09/01 06:02:15;;;;;;;2.30;1.80;;;17.50;98.00;;;;;;5033449;28;20465;-67
2023/09/01 06:04:42;;;;;;;2.73;1.93;;;17.40;98.00;;;;;;5015810;28;20817;-67
2023/09/01 06:07:09;;;;;;;3.73;1.73;;;17.40;98.00;;;;;;5033397;28;20462;-67
2023/09/01 06:09:37;;;;;;;4.37;2.17;;;17.50;98.00;;;;;;5033322;28;20455;-68
2023/09/01 06:12:04;;;;;;;2.53;2.00;;;17.40;98.00;;;;;;5033200;28;20487;-67
2023/09/01 06:14:33;;;;;;;4.13;2.07;;;17.50;98.00;;;;;;5033123;28;20447;-67
2023/09/01 06:17:00;;;;;;;2.77;2.00;;;17.50;98.00;;;;;;5033214;28;20473;-67
2023/09/01 06:19:27;;;;;;;3.10;1.93;;;17.50;98.00;;;;;;5033339;28;20477;-66
2023/09/01 06:21:54;;;;;;;2.87;2.00;;;17.50;98.00;;;;;;5033202;28;20477;-67
2023/09/01 06:24:21;;;;;;;3.90;2.10;;;17.50;98.00;;;;;;5032901;28;20462;-67
2023/09/01 06:26:48;;;;;;;3.57;2.43;;;17.70;98.00;;;;;;5033323;28;20455;-67
2023/09/01 06:29:15;;;;;;;5.23;2.20;;;17.60;98.00;;;;;;5033271;28;20833;-67
2023/09/01 06:31:43;;;;;;;7.53;1.93;;;17.70;98.00;;;;;;5033334;28;20862;-67
2023/09/01 06:34:11;;;;;;;2.90;1.90;;;17.70;98.00;;;;;;5033089;28;20482;-67
2023/09/01 06:36:40;;;;;;;2.67;2.40;;;17.60;98.00;;;;;;5015840;28;20813;-67
2023/09/01 06:39:07;;;;;;;4.20;2.50;;;17.70;98.00;;;;;;5032997;28;20454;-67
2023/09/01 06:41:41;;;;;;;5.13;2.03;;;17.60;98.00;;;;;;5032352;28;20447;-67
2023/09/01 06:44:08;;;;;;;3.47;2.13;;;17.60;98.00;;;;;;5016376;28;20455;-67
2023/09/01 06:46:35;;;;;;;3.77;2.00;;;17.40;98.00;;;;;;5032887;28;20457;-67
2023/09/01 06:49:04;;;;;;;6.57;1.90;;;17.40;98.00;;;;;;5033757;28;20450;-67
2023/09/01 06:51:31;;;;;;;3.27;2.40;;;17.40;98.00;;;;;;5016416;28;20516;-67
2023/09/01 06:53:58;;;;;;;3.90;2.30;;;17.50;98.00;;;;;;5032990;28;20487;-67
2023/09/01 06:56:26;;;;;;;3.87;1.80;;;17.40;98.00;;;;;;5033652;28;20482;-67
2023/09/01 06:58:53;;;;;;;2.60;1.90;;;17.50;98.00;;;;;;5033713;28;20518;-67
2023/09/01 07:01:21;;;;;;;6.00;2.00;;;17.50;98.00;;;;;;5032932;28;20490;-67
2023/09/01 07:03:48;;;;;;;2.03;1.73;;;17.50;98.00;;;;;;5032770;28;20457;-67
2023/09/01 07:06:17;;;;;;;2.73;1.90;;;17.60;98.00;;;;;;4998935;28;20963;-67
2023/09/01 07:08:44;;;;;;;5.90;2.07;;;17.60;98.00;;;;;;5032511;28;20490;-67
2023/09/01 07:11:14;;;;;;;3.00;2.10;;;17.50;98.00;;;;;;5015123;28;20459;-67
2023/09/01 07:13:42;;;;;;;1.80;1.60;;;17.50;98.00;;;;;;5032140;28;20479;-67
2023/09/01 07:16:09;;;;;;;2.20;1.67;;;17.60;98.00;;;;;;5032467;28;20460;-67
2023/09/01 07:18:36;;;;;;;2.23;1.80;;;17.70;98.00;;;;;;5014969;28;20447;-67
2023/09/01 07:21:03;;;;;;;2.10;1.90;;;17.70;98.00;;;;;;5032434;28;20520;-67
2023/09/01 07:23:31;;;;;;;8.53;1.97;;;17.70;98.00;;;;;;5032001;28;20450;-67
2023/09/01 07:26:00;;;;;;;2.50;1.60;;;17.60;98.00;;;;;;5032375;28;20802;-67
2023/09/01 07:28:27;;;;;;;2.30;1.77;;;17.50;98.00;;;;;;5030496;28;20459;-67
2023/09/01 07:30:55;;;;;;;2.30;1.90;;;17.50;98.00;;;;;;5032078;28;20451;-67
2023/09/01 07:33:23;;;;;;;2.67;1.83;;;17.50;98.00;;;;;;5031723;28;20483;-67
2023/09/01 07:35:52;;;;;;;2.97;2.03;;;17.60;98.00;;;;;;5031940;28;20455;-67
2023/09/01 07:38:19;;;;;;;2.60;1.87;;;17.70;98.00;;;;;;5031966;28;20481;-67
2023/09/01 07:40:48;;;;;;;4.10;2.30;;;17.70;98.00;;;;;;5032015;28;20541;-67
2023/09/01 07:43:15;;;;;;;2.70;2.00;;;17.60;98.00;;;;;;5031735;28;20517;-67
2023/09/01 07:45:43;;;;;;;3.07;1.60;;;17.50;98.00;;;;;;5032458;28;20825;-67
2023/09/01 07:48:12;;;;;;;2.20;1.87;;;17.50;98.00;;;;;;5032433;28;20990;-67
2023/09/01 07:50:40;;;;;;;2.43;1.97;;;17.60;98.00;;;;;;5032541;28;20458;-67
2023/09/01 07:53:07;;;;;;;3.17;1.90;;;17.60;98.00;;;;;;5032255;28;20493;-67
2023/09/01 07:55:34;;;;;;;3.97;3.00;;;17.70;98.00;;;;;;5032410;28;20457;-67
2023/09/01 07:58:02;;;;;;;3.87;2.63;;;17.70;98.00;;;;;;5032256;28;20463;-67
2023/09/01 08:00:30;;;;;;;2.10;1.83;;;17.80;98.00;;;;;;5031945;28;20447;-67
2023/09/01 08:02:57;;;;;;;2.97;2.03;;;17.90;98.00;;;;;;5032273;28;20465;-67
2023/09/01 08:05:24;;;;;;;3.27;2.23;;;17.80;98.00;;;;;;5014907;28;20463;-68
2023/09/01 08:07:53;;;;;;;2.30;1.70;;;17.80;98.00;;;;;;5015293;28;20443;-67
2023/09/01 08:10:20;;;;;;;2.90;1.73;;;17.80;98.00;;;;;;5032227;28;20553;-67
2023/09/01 08:12:47;;;;;;;5.40;2.30;;;17.90;98.00;;;;;;5032124;28;21011;-67
2023/09/01 08:15:16;;;;;;;2.50;1.97;;;18.00;98.00;;;;;;5032075;28;20454;-67
2023/09/01 08:17:43;;;;;;;3.73;2.17;;;18.00;98.00;;;;;;5031952;28;20459;-67
2023/09/01 08:20:11;;;;;;;2.43;1.80;;;18.20;98.00;;;;;;5031884;28;20940;-67
2023/09/01 08:22:38;;;;;;;2.20;1.90;;;18.40;98.00;;;;;;5031873;28;20459;-67
2023/09/01 08:25:08;;;;;;;2.67;2.03;;;18.40;98.00;;;;;;5031653;28;20498;-67
2023/09/01 08:27:35;;;;;;;2.43;2.00;;;18.60;98.00;;;;;;5031737;28;20534;-67
2023/09/01 08:30:03;;;;;;;2.20;1.77;;;18.80;98.00;;;;;;5031650;28;20940;-67
2023/09/01 08:32:33;;;;;;;1.63;1.50;;;18.90;98.00;;;;;;5031571;28;20454;-67
2023/09/01 08:35:00;;;;;;;2.03;1.90;;;19.00;98.00;;;;;;5031634;28;20459;-68
2023/09/01 08:37:28;;;;;;;3.10;2.00;;;18.90;98.00;;;;;;5031793;28;20459;-67
2023/09/01 08:39:55;;;;;;;2.13;1.80;;;18.90;98.00;;;;;;5031646;28;20450;-67
2023/09/01 08:42:22;;;;;;;1.93;1.70;;;18.80;98.00;;;;;;5031701;28;20932;-67
2023/09/01 08:44:50;;;;;;;3.33;1.80;;;18.80;98.00;;;;;;5031925;28;20937;-67
2023/09/01 08:47:20;;;;;;;1.70;1.60;;;18.80;98.00;;;;;;5014048;28;20465;-67
2023/09/01 08:49:50;;;;;;;2.40;1.93;;;18.80;98.00;;;;;;5031668;28;20488;-67
2023/09/01 08:52:19;;;;;;;3.00;2.10;;;19.00;98.00;;;;;;5031762;28;20538;-67
2023/09/01 08:54:48;;;;;;;2.50;2.00;;;19.00;98.00;;;;;;5031767;28;20489;-68
2023/09/01 08:57:15;;;;;;;2.20;1.73;;;19.00;98.00;;;;;;5031848;28;20451;-68
2023/09/01 08:59:43;;;;;;;1.93;1.60;;;19.10;98.00;;;;;;5031223;28;20443;-67
2023/09/01 09:02:11;;;;;;;2.13;1.80;;;19.20;98.00;;;;;;5031170;28;20458;-68
2023/09/01 09:04:38;;;;;;;3.10;1.93;;;19.30;98.00;;;;;;5013656;28;20494;-68
2023/09/01 09:07:17;;;;;;;3.13;1.60;;;19.40;98.00;;;;;;5034735;28;20858;-68
2023/09/01 09:09:52;;;;;;;1.97;1.70;;;19.40;98.00;;;;;;5034653;28;20459;-68
2023/09/01 09:12:19;;;;;;;2.60;1.90;;;19.50;98.00;;;;;;5034781;28;20451;-68
2023/09/01 09:14:49;;;;;;;1.90;1.80;;;19.60;98.00;;;;;;5034461;28;20490;-68
2023/09/01 09:17:16;;;;;;;1.80;1.63;;;19.70;98.00;;;;;;5034603;28;21019;-68
2023/09/01 09:19:52;;;;;;;2.30;1.90;;;19.70;98.00;;;;;;5034457;28;20455;-68
2023/09/01 09:22:20;;;;;;;2.40;1.80;;;19.70;98.00;;;;;;5034457;28;20458;-68
2023/09/01 09:24:48;;;;;;;2.90;1.80;;;19.60;98.00;;;;;;5033180;28;20466;-68
2023/09/01 09:27:15;;;;;;;2.57;1.70;;;19.50;98.00;;;;;;5033287;28;20490;-67
2023/09/01 09:29:43;;;;;;;2.47;1.77;;;19.50;98.00;;;;;;5032834;28;21004;-69
2023/09/01 09:32:21;;;;;;;2.40;1.67;;;19.70;98.00;;;;;;5032902;28;20450;-69
2023/09/01 09:35:06;;;;;;;2.30;1.87;;;19.80;98.00;;;;;;5032568;28;20478;-70
2023/09/01 09:37:35;;;;;;;1.63;1.60;;;19.80;98.00;;;;;;5032840;28;20524;-67
2023/09/01 09:40:16;;;;;;;2.70;1.63;;;20.00;98.00;;;;;;5032991;28;20454;-69
2023/09/01 09:42:45;;;;;;;2.23;1.70;;;20.00;98.00;;;;;;5032999;28;20557;-69
2023/09/01 09:45:26;;;;;;;2.10;1.90;;;20.30;98.00;;;;;;5032866;28;20450;-69
2023/09/01 09:47:54;;;;;;;3.47;2.07;;;20.60;98.00;;;;;;5032755;28;20493;-68
2023/09/01 09:50:21;;;;;;;3.30;1.90;;;20.80;98.00;;;;;;5032393;28;20839;-69
2023/09/01 09:52:51;;;;;;;2.33;1.80;;;21.00;98.00;;;;;;5051932;28;20464;-68
2023/09/01 09:55:25;;;;;;;2.50;1.93;;;21.30;98.00;;;;;;5046409;28;20976;-71
2023/09/01 09:57:52;;;;;;;1.80;1.70;;;21.70;98.00;;;;;;5032461;28;20451;-70
2023/09/01 10:00:22;;;;;;;2.20;1.90;;;21.80;98.00;;;;;;5032478;28;20533;-70
2023/09/01 10:02:54;;;;;;;2.57;1.87;;;22.10;98.00;;;;;;5032822;28;20450;-71
2023/09/01 10:05:25;;;;;;;2.10;1.80;;;22.40;98.00;;;;;;5032693;28;20530;-71
2023/09/01 10:07:54;;;;;;;2.20;1.93;;;22.80;98.00;;;;;;5032544;28;20457;-70
2023/09/01 10:10:22;;;;;;;1.97;1.77;;;23.00;98.00;;;;;;5032280;28;20516;-69
2023/09/01 10:12:51;;;;;;;2.77;1.90;;;23.10;98.00;;;;;;5032446;28;20549;-69
2023/09/01 10:15:19;;;;;;;1.90;1.80;;;22.80;98.00;;;;;;5032128;28;20482;-70
2023/09/01 10:17:49;;;;;;;2.80;2.03;;;22.70;98.00;;;;;;5031059;28;20455;-69
2023/09/01 10:20:16;;;;;;;4.47;2.10;;;22.70;98.00;;;;;;5032253;28;20951;-71
2023/09/01 10:22:45;;;;;;;2.20;1.93;;;22.70;98.00;;;;;;5032225;28;20530;-71
2023/09/01 10:25:16;;;;;;;3.10;1.90;;;22.50;98.00;;;;;;4991446;28;1187619;-71
2023/09/01 10:28:05;;;;;;;2.53;2.10;;;22.40;98.00;;;;;;5033244;28;20291;-69
2023/09/01 10:30:33;;;;;;;2.70;2.03;;;22.30;98.00;;;;;;5033599;28;20462;-69
2023/09/01 10:33:08;;;;;;;2.37;1.90;;;22.10;98.00;;;;;;5033704;28;20486;-71
2023/09/01 10:35:44;;;;;;;2.77;1.93;;;22.20;98.00;;;;;;5033477;28;20450;-71
2023/09/01 10:38:13;;;;;;;2.63;2.00;;;22.10;98.00;;;;;;5033618;28;20461;-70
2023/09/01 10:40:44;;;;;;;3.40;2.30;;;22.20;98.00;;;;;;5033146;28;20520;-69
2023/09/01 10:43:11;;;;;;;6.47;2.17;;;22.40;98.00;;;;;;5033978;28;20450;-70
2023/09/01 10:45:38;;;;;;;2.30;2.10;;;22.70;98.00;;;;;;5033503;28;20486;-69
2023/09/01 10:48:11;;;;;;;3.43;2.10;;;22.90;98.00;;;;;;5033584;28;20875;-70
2023/09/01 10:50:41;;;;;;;3.30;2.10;;;22.80;98.00;;;;;;5017000;28;20537;-70
2023/09/01 10:53:31;;;;;;;2.50;2.00;;;22.80;98.00;;;;;;5016413;28;20525;-72
2023/09/01 10:56:12;;;;;;;2.03;1.67;;;22.60;98.00;;;;;;5033770;28;20929;-70
2023/09/01 10:58:45;;;;;;;2.80;1.93;;;22.80;98.00;;;;;;5033699;28;20451;-69
2023/09/01 11:01:27;;;;;;;3.03;1.97;;;22.90;98.00;;;;;;5037228;28;20451;-70
2023/09/01 11:03:55;;;;;;;2.60;2.07;;;23.00;98.00;;;;;;5036668;28;20462;-69
2023/09/01 11:06:24;;;;;;;2.27;1.90;;;23.10;98.00;;;;;;5033392;28;20461;-70
2023/09/01 11:08:59;;;;;;;2.13;1.80;;;23.30;98.00;;;;;;5033283;28;20505;-71
2023/09/01 11:11:27;;;;;;;2.00;1.70;;;23.40;98.00;;;;;;5033088;28;20537;-69
2023/09/01 11:13:55;;;;;;;2.97;2.20;;;23.40;98.00;;;;;;5032845;28;20609;-69
2023/09/01 11:16:22;;;;;;;2.87;1.90;;;23.70;98.00;;;;;;5033050;28;20485;-70
2023/09/01 11:19:00;;;;;;;3.10;1.90;;;23.90;98.00;;;;;;5033162;28;20458;-71
2023/09/01 11:21:27;;;;;;;3.50;1.97;;;24.10;98.00;;;;;;5032864;28;20451;-69
2023/09/01 11:23:58;;;;;;;3.00;1.90;;;24.40;98.00;;;;;;5032939;28;20466;-70
2023/09/01 11:26:27;;;;;;;2.53;1.90;;;24.60;98.00;;;;;;5032891;28;20486;-69
2023/09/01 11:28:55;;;;;;;3.47;1.83;;;24.90;98.00;;;;;;5032670;28;20451;-70
2023/09/01 11:31:22;;;;;;;2.17;1.77;;;25.00;98.00;;;;;;5015252;28;20491;-71
2023/09/01 11:33:53;;;;;;;2.33;1.93;;;25.00;98.00;;;;;;5032210;28;20489;-70
2023/09/01 11:36:23;;;;;;;3.63;1.60;;;24.90;98.00;;;;;;5032420;28;20484;-71
2023/09/01 11:38:52;;;;;;;2.50;1.97;;;25.00;98.00;;;;;;5032880;28;20912;-70
2023/09/01 11:41:22;;;;;;;2.70;1.90;;;25.10;98.00;;;;;;5032755;28;20467;-71
2023/09/01 11:43:51;;;;;;;2.23;1.70;;;25.20;98.00;;;;;;5032667;28;20933;-70
2023/09/01 11:46:18;;;;;;;2.90;1.80;;;25.20;98.00;;;;;;5032609;28;21048;-71
2023/09/01 11:48:48;;;;;;;2.50;1.90;;;25.40;98.00;;;;;;5015193;28;21005;-70
2023/09/01 11:51:18;;;;;;;2.90;1.70;;;25.70;98.00;;;;;;5032457;28;20539;-70
2023/09/01 11:53:53;;;;;;;2.60;1.83;;;25.90;98.00;;;;;;5032149;28;20470;-71
2023/09/01 11:56:24;;;;;;;2.03;1.77;;;26.10;98.00;;;;;;5032584;28;20534;-72
2023/09/01 11:58:55;;;;;;;2.00;1.70;;;26.40;98.00;;;;;;5015128;28;20536;-67
2023/09/01 12:01:24;;;;;;;2.60;1.87;;;26.60;98.00;;;;;;5032660;28;20525;-66
2023/09/01 12:03:52;;;;;;;2.17;1.90;;;26.70;98.00;;;;;;5032593;28;20450;-66
2023/09/01 12:06:20;;;;;;;2.40;1.93;;;27.10;98.00;;;;;;5032230;28;20521;-66
2023/09/01 12:08:48;;;;;;;2.00;1.63;;;27.20;98.00;;;;;;5032153;28;20455;-66
2023/09/01 12:11:16;;;;;;;2.20;1.67;;;27.50;98.00;;;;;;5014740;28;20455;-66
2023/09/01 12:13:44;;;;;;;2.17;1.80;;;27.60;98.00;;;;;;5014354;28;20455;-66
2023/09/01 12:16:21;;;;;;;4.73;1.80;;;27.90;98.00;;;;;;5032181;28;20455;-67
2023/09/01 12:18:50;;;;;;;2.20;1.83;;;27.80;98.00;;;;;;5031723;28;20457;-66
2023/09/01 12:21:17;;;;;;;1.70;1.70;;;27.80;98.00;;;;;;5032170;28;20925;-67
2023/09/01 12:23:45;;;;;;;1.70;1.70;;;28.10;98.00;;;;;;5031798;28;20470;-67
2023/09/01 12:26:13;;;;;;;2.33;1.90;;;28.30;98.00;;;;;;5032123;28;20512;-66
2023/09/01 12:28:41;;;;;;;2.10;1.80;;;28.60;98.00;;;;;;5031741;28;20487;-67
2023/09/01 12:31:10;;;;;;;2.60;1.93;;;28.70;98.00;;;;;;5032036;28;20451;-69
2023/09/01 12:33:39;;;;;;;2.17;1.90;;;28.30;98.00;;;;;;5031549;28;20466;-69
2023/09/01 12:36:06;;;;;;;1.93;1.73;;;27.60;98.00;;;;;;5031805;28;20490;-69
2023/09/01 12:38:34;;;;;;;2.60;1.90;;;27.30;98.00;;;;;;5031858;28;20454;-69
2023/09/01 12:41:09;;;;;;;2.30;2.00;;;27.20;98.00;;;;;;5014096;28;20486;-69
2023/09/01 12:43:36;;;;;;;1.87;1.60;;;27.40;98.00;;;;;;5031757;28;20809;-69
2023/09/01 12:46:05;;;;;;;2.30;2.00;;;27.10;98.00;;;;;;5031026;28;20474;-69
2023/09/01 12:48:32;;;;;;;1.87;1.77;;;27.20;98.00;;;;;;5031877;28;20462;-69
2023/09/01 12:51:01;;;;;;;1.90;1.67;;;26.80;98.00;;;;;;5031839;28;20470;-69
2023/09/01 12:53:28;;;;;;;3.00;2.10;;;26.50;98.00;;;;;;5031692;28;20461;-69